Time;durP1;ratioP1;P1;durP2;ratioP2;P2;SDS_P1;SDS_P2;PMS_P1;PMS_P2;Temp;Humidity;BMP_temperature;BMP_pressure;BME280_temperature;BME280_humidity;BME280_pressure;Samples;Min_cycle;Max_cycle;Signal;HPM_P1;HPM_P2
2023/01/23 00:00:38;;;;;;;6.75;3.95;;;2.40;99.90;;;;;;4940168;29;20043;-79
2023/01/23 00:03:04;;;;;;;7.82;4.30;;;2.40;99.90;;;;;;4957453;28;20035;-78
2023/01/23 00:05:30;;;;;;;6.70;4.10;;;2.40;99.90;;;;;;4957053;28;20043;-78
2023/01/23 00:07:56;;;;;;;6.70;4.45;;;2.40;99.90;;;;;;4956028;29;20071;-78
2023/01/23 00:10:21;;;;;;;6.50;4.10;;;2.30;99.90;;;;;;4940065;29;20534;-79
2023/01/23 00:12:52;;;;;;;7.30;4.35;;;2.30;99.90;;;;;;4956144;29;20047;-78
2023/01/23 00:15:18;;;;;;;7.40;4.22;;;2.40;99.90;;;;;;4956081;29;20047;-78
2023/01/23 00:17:44;;;;;;;8.50;4.13;;;2.60;99.90;;;;;;4955570;29;20506;-78
2023/01/23 00:20:11;;;;;;;7.15;4.55;;;2.50;99.90;;;;;;4956565;29;20043;-78
2023/01/23 00:22:37;;;;;;;8.38;4.40;;;2.40;99.90;;;;;;4971628;28;20125;-78
2023/01/23 00:25:04;;;;;;;6.15;4.07;;;2.90;99.90;;;;;;4972033;28;20446;-78
2023/01/23 00:27:30;;;;;;;5.75;3.75;;;2.40;99.90;;;;;;4956631;28;20392;-78
2023/01/23 00:29:55;;;;;;;6.57;4.00;;;2.40;99.90;;;;;;4956609;29;20042;-78
2023/01/23 00:32:22;;;;;;;7.32;4.55;;;2.60;99.90;;;;;;4939813;29;20098;-79
2023/01/23 00:34:48;;;;;;;6.55;4.40;;;2.40;99.90;;;;;;4956523;28;20090;-78
2023/01/23 00:37:15;;;;;;;6.53;4.18;;;2.50;99.90;;;;;;4955531;29;20047;-78
2023/01/23 00:39:41;;;;;;;5.57;4.18;;;2.40;99.90;;;;;;4955409;29;20101;-78
2023/01/23 00:42:07;;;;;;;6.15;3.70;;;2.50;99.90;;;;;;4955957;29;20134;-78
2023/01/23 00:44:33;;;;;;;8.88;4.40;;;2.40;99.90;;;;;;4955255;28;20074;-78
2023/01/23 00:46:59;;;;;;;6.90;4.25;;;2.40;99.90;;;;;;4955295;29;20479;-78
2023/01/23 00:49:25;;;;;;;6.65;4.40;;;2.50;99.90;;;;;;4955289;29;20078;-78
2023/01/23 00:51:51;;;;;;;6.18;4.18;;;2.40;99.90;;;;;;4955033;29;20078;-78
2023/01/23 00:54:19;;;;;;;6.65;4.07;;;2.70;99.90;;;;;;4956104;28;20050;-78
2023/01/23 00:56:44;;;;;;;7.57;4.22;;;2.40;99.90;;;;;;4939180;29;20456;-79
2023/01/23 00:59:10;;;;;;;6.97;5.00;;;2.80;99.90;;;;;;4939950;29;20093;-78
2023/01/23 01:01:36;;;;;;;8.63;4.80;;;2.50;99.90;;;;;;4970721;28;20094;-79
2023/01/23 01:04:01;;;;;;;8.32;4.13;;;2.50;99.90;;;;;;4954996;29;20094;-79
2023/01/23 01:06:28;;;;;;;8.57;4.75;;;2.50;99.90;;;;;;4955250;29;20059;-78
2023/01/23 01:08:55;;;;;;;7.70;4.20;;;3.00;99.90;;;;;;4956460;28;20349;-79
2023/01/23 01:11:20;;;;;;;8.43;4.38;;;2.50;99.90;;;;;;4955594;29;20483;-78
2023/01/23 01:13:46;;;;;;;8.30;4.93;;;2.50;99.90;;;;;;4955163;29;20043;-79
2023/01/23 01:16:12;;;;;;;8.00;4.65;;;2.60;99.90;;;;;;4954877;29;20155;-79
2023/01/23 01:18:38;;;;;;;8.52;4.20;;;2.60;99.90;;;;;;4954410;29;20047;-79
2023/01/23 01:21:12;;;;;;;7.32;4.53;;;2.60;99.90;;;;;;4955636;29;20483;-79
2023/01/23 01:23:39;;;;;;;6.32;4.10;;;2.60;99.90;;;;;;4955726;28;20155;-79
2023/01/23 01:26:05;;;;;;;7.45;4.15;;;2.50;99.90;;;;;;4954940;29;20047;-79
2023/01/23 01:28:33;;;;;;;8.43;4.57;;;2.60;99.90;;;;;;4955334;28;20062;-79
2023/01/23 01:31:05;;;;;;;7.47;4.28;;;2.50;99.90;;;;;;4970448;28;20050;-79
2023/01/23 01:33:31;;;;;;;7.78;3.90;;;2.50;99.90;;;;;;4954881;29;20058;-79
2023/01/23 01:35:57;;;;;;;6.47;3.95;;;2.50;99.90;;;;;;4954437;29;20079;-79
2023/01/23 01:38:23;;;;;;;7.00;4.10;;;2.50;99.90;;;;;;4954544;29;20091;-79
2023/01/23 01:40:49;;;;;;;6.75;4.00;;;2.50;99.90;;;;;;4954266;29;20043;-79
2023/01/23 01:43:19;;;;;;;7.53;4.32;;;2.50;99.90;;;;;;4954207;29;20039;-79
2023/01/23 01:46:06;;;;;;;7.45;4.78;;;2.50;99.90;;;;;;4954442;29;20054;-79
2023/01/23 01:48:46;;;;;;;7.20;4.90;;;2.50;99.90;;;;;;4955415;28;20047;-79
2023/01/23 01:51:49;;;;;;;7.50;3.97;;;2.50;99.90;;;;;;4955913;29;20054;-79
2023/01/23 01:54:22;;;;;;;6.63;4.28;;;2.50;99.90;;;;;;4930721;29;20054;-79
2023/01/23 01:57:08;;;;;;;5.97;4.20;;;3.00;99.90;;;;;;4954560;29;20051;-79
2023/01/23 01:59:46;;;;;;;6.07;3.93;;;2.50;99.90;;;;;;4954372;29;20047;-79
2023/01/23 02:02:16;;;;;;;7.32;4.10;;;2.50;99.90;;;;;;4954967;29;20049;-79
2023/01/23 02:04:46;;;;;;;8.65;4.65;;;2.50;99.90;;;;;;4954490;29;20043;-79
2023/01/23 02:07:23;;;;;;;7.60;4.45;;;2.70;99.90;;;;;;4954262;29;20595;-79
2023/01/23 02:09:49;;;;;;;8.45;4.35;;;2.50;99.90;;;;;;4954076;29;20379;-79
2023/01/23 02:12:15;;;;;;;7.70;4.47;;;2.50;99.90;;;;;;4955470;28;20416;-79
2023/01/23 02:14:41;;;;;;;7.32;4.70;;;2.50;99.90;;;;;;4953782;29;20107;-79
2023/01/23 02:17:08;;;;;;;7.90;4.55;;;2.50;99.90;;;;;;4954598;29;20051;-79
2023/01/23 02:19:43;;;;;;;8.68;4.50;;;2.90;99.90;;;;;;4954516;29;20062;-79
2023/01/23 02:22:37;;;;;;;8.27;4.47;;;2.40;99.90;;;;;;4954692;29;20049;-79
2023/01/23 02:25:14;;;;;;;11.55;5.63;;;2.50;99.90;;;;;;4955010;29;20133;-79
2023/01/23 02:27:39;;;;;;;6.53;3.95;;;2.50;99.90;;;;;;4955236;28;20073;-79
2023/01/23 02:30:06;;;;;;;7.72;4.13;;;2.60;99.90;;;;;;4953983;29;20047;-80
2023/01/23 02:32:34;;;;;;;7.22;4.50;;;2.50;99.90;;;;;;4955516;28;20051;-79
2023/01/23 02:35:08;;;;;;;6.75;4.40;;;2.90;99.90;;;;;;4954062;29;20055;-79
2023/01/23 02:37:36;;;;;;;6.95;4.35;;;2.50;99.90;;;;;;4954341;29;20444;-80
2023/01/23 02:40:03;;;;;;;6.60;4.72;;;2.80;99.90;;;;;;4954498;29;20047;-79
2023/01/23 02:42:29;;;;;;;7.05;4.47;;;2.50;99.90;;;;;;4954533;29;20043;-79
2023/01/23 02:44:56;;;;;;;5.88;3.97;;;2.60;99.90;;;;;;4953847;29;20126;-79
2023/01/23 02:47:24;;;;;;;7.93;4.20;;;2.40;99.90;;;;;;4954875;28;20051;-79
2023/01/23 02:49:49;;;;;;;7.07;5.20;;;2.50;99.90;;;;;;4954924;28;20435;-79
2023/01/23 02:52:15;;;;;;;8.38;4.78;;;2.50;99.90;;;;;;4953752;29;20032;-79
2023/01/23 02:54:41;;;;;;;7.30;4.82;;;2.50;99.90;;;;;;4954810;29;20507;-79
2023/01/23 02:57:07;;;;;;;7.72;4.00;;;2.40;99.90;;;;;;4955285;28;20123;-79
2023/01/23 03:02:17;;;;;;;7.47;4.40;;;2.70;99.90;;;;;;4954596;29;20106;-79
2023/01/23 03:04:42;;;;;;;7.18;4.90;;;2.50;99.90;;;;;;4953779;29;20125;-79
2023/01/23 03:07:08;;;;;;;7.63;4.10;;;2.50;99.90;;;;;;4939035;29;20376;-79
2023/01/23 03:09:34;;;;;;;8.38;4.80;;;2.60;99.90;;;;;;4956885;29;20055;-79
2023/01/23 03:12:00;;;;;;;7.55;4.45;;;2.50;99.90;;;;;;4956909;29;20035;-79
2023/01/23 03:14:25;;;;;;;8.13;4.97;;;3.00;99.90;;;;;;4957080;29;20380;-79
2023/01/23 03:16:52;;;;;;;7.10;4.20;;;2.50;99.90;;;;;;4957381;29;20047;-79
2023/01/23 03:19:24;;;;;;;7.78;4.65;;;2.50;99.90;;;;;;4958042;28;20401;-79
2023/01/23 03:21:50;;;;;;;7.45;4.93;;;2.70;99.90;;;;;;4956817;29;20046;-79
2023/01/23 03:24:16;;;;;;;9.15;4.47;;;2.60;99.90;;;;;;4941099;29;20054;-79
2023/01/23 03:26:44;;;;;;;6.80;4.47;;;2.50;99.90;;;;;;4956821;29;20047;-79
2023/01/23 03:31:58;;;;;;;7.10;4.60;;;2.50;99.90;;;;;;4973152;28;20055;-79
2023/01/23 03:34:24;;;;;;;8.13;4.50;;;2.50;99.90;;;;;;4958260;28;20126;-80
2023/01/23 03:36:50;;;;;;;9.45;4.90;;;2.50;99.90;;;;;;4957875;29;20510;-79
2023/01/23 03:41:59;;;;;;;12.05;6.90;;;2.50;99.90;;;;;;4972806;28;20051;-79
2023/01/23 03:44:25;;;;;;;8.20;5.00;;;2.50;99.90;;;;;;4956528;29;20468;-79
2023/01/23 03:46:51;;;;;;;9.07;4.60;;;3.00;99.90;;;;;;4956253;29;20376;-79
2023/01/23 03:49:18;;;;;;;6.72;4.75;;;2.50;99.90;;;;;;4924665;29;20130;-79
2023/01/23 03:51:44;;;;;;;8.02;4.65;;;2.70;99.90;;;;;;4957398;28;20039;-80
2023/01/23 03:54:10;;;;;;;7.47;4.80;;;2.80;99.90;;;;;;4957146;29;20062;-79
2023/01/23 03:56:36;;;;;;;7.72;4.55;;;2.50;99.90;;;;;;4957393;28;20053;-79
2023/01/23 03:59:02;;;;;;;7.75;4.80;;;2.50;99.90;;;;;;4956257;29;20086;-79
2023/01/23 04:01:28;;;;;;;7.47;5.20;;;2.50;99.90;;;;;;4955829;29;20388;-79
2023/01/23 04:03:54;;;;;;;7.82;4.75;;;2.70;99.90;;;;;;4956194;29;20043;-79
2023/01/23 04:06:20;;;;;;;8.02;4.78;;;2.80;99.90;;;;;;4956092;29;20039;-79
2023/01/23 04:08:45;;;;;;;9.95;4.97;;;2.40;99.90;;;;;;4956087;29;20380;-79
2023/01/23 04:11:12;;;;;;;7.50;4.93;;;2.40;99.90;;;;;;4956852;29;20051;-79
2023/01/23 04:13:38;;;;;;;9.15;4.70;;;2.30;99.90;;;;;;4972132;28;20051;-79
2023/01/23 04:16:05;;;;;;;9.27;5.28;;;2.70;99.90;;;;;;4956847;28;20051;-80
2023/01/23 04:18:31;;;;;;;10.45;5.20;;;2.30;99.90;;;;;;4954309;28;20059;-80
2023/01/23 04:20:57;;;;;;;8.60;4.45;;;2.60;99.90;;;;;;4956829;28;20571;-79
2023/01/23 04:23:23;;;;;;;7.65;4.68;;;2.70;99.90;;;;;;4955528;29;20054;-80
2023/01/23 04:25:50;;;;;;;7.80;4.43;;;2.80;99.90;;;;;;4955494;29;20093;-79
2023/01/23 04:28:16;;;;;;;10.43;5.00;;;2.40;99.90;;;;;;4956339;29;20051;-80
2023/01/23 04:30:42;;;;;;;9.60;4.97;;;2.60;99.90;;;;;;4955365;29;20078;-80
2023/01/23 04:33:08;;;;;;;8.25;5.38;;;2.40;99.90;;;;;;4971855;28;20078;-80
2023/01/23 04:35:34;;;;;;;7.68;5.47;;;2.40;99.90;;;;;;4955114;29;20097;-79
2023/01/23 04:38:00;;;;;;;7.65;5.10;;;2.50;99.90;;;;;;4956290;29;20039;-79
2023/01/23 04:40:25;;;;;;;8.68;4.50;;;2.40;99.90;;;;;;4955403;29;20527;-79
2023/01/23 04:42:51;;;;;;;7.13;4.65;;;2.50;99.90;;;;;;4955270;29;20035;-80
2023/01/23 04:45:17;;;;;;;9.10;5.28;;;2.70;99.90;;;;;;4971478;28;20094;-80
2023/01/23 04:47:43;;;;;;;7.43;4.82;;;2.50;99.90;;;;;;4955434;29;20126;-80
2023/01/23 04:50:09;;;;;;;8.43;5.10;;;2.50;99.90;;;;;;4955980;29;20049;-80
2023/01/23 04:52:34;;;;;;;10.57;5.63;;;2.40;99.90;;;;;;4939387;29;20054;-80
2023/01/23 04:55:00;;;;;;;7.10;4.70;;;2.30;99.90;;;;;;4956255;28;20043;-80
2023/01/23 04:57:26;;;;;;;9.35;5.22;;;2.60;99.90;;;;;;4955237;29;20073;-80
2023/01/23 04:59:52;;;;;;;8.15;5.60;;;2.30;99.90;;;;;;4955196;29;20090;-80
2023/01/23 05:02:17;;;;;;;7.93;4.82;;;2.40;99.90;;;;;;4954960;29;20117;-79
2023/01/23 05:04:44;;;;;;;8.70;5.05;;;2.40;99.90;;;;;;4955077;29;20050;-79
2023/01/23 05:07:11;;;;;;;6.20;4.50;;;2.80;99.90;;;;;;4939371;29;20126;-80
2023/01/23 05:09:40;;;;;;;8.10;4.50;;;2.40;99.90;;;;;;4955762;29;20043;-80
2023/01/23 05:12:06;;;;;;;7.75;4.38;;;2.30;99.90;;;;;;4955257;29;20047;-80
2023/01/23 05:14:32;;;;;;;7.15;4.20;;;2.30;99.90;;;;;;4954845;29;20542;-79
2023/01/23 05:16:57;;;;;;;8.70;5.28;;;2.30;99.90;;;;;;4956063;29;20047;-79
2023/01/23 05:19:23;;;;;;;8.00;4.85;;;2.30;99.90;;;;;;4971026;28;20355;-80
2023/01/23 05:21:49;;;;;;;7.05;4.80;;;2.30;99.90;;;;;;4954718;29;20551;-79
2023/01/23 05:24:15;;;;;;;6.35;4.47;;;2.30;99.90;;;;;;4954823;29;20043;-79
2023/01/23 05:26:41;;;;;;;6.85;4.68;;;2.30;99.90;;;;;;4954729;29;20539;-79
2023/01/23 05:29:07;;;;;;;7.95;4.60;;;2.30;99.90;;;;;;4955205;28;20526;-79
2023/01/23 05:31:33;;;;;;;8.50;4.43;;;2.20;99.90;;;;;;4954551;29;20039;-79
2023/01/23 05:33:59;;;;;;;7.70;4.78;;;2.40;99.90;;;;;;4954584;29;20039;-79
2023/01/23 05:36:24;;;;;;;8.27;4.93;;;2.30;99.90;;;;;;4955538;29;20074;-79
2023/01/23 05:38:50;;;;;;;7.32;4.82;;;2.80;99.90;;;;;;4954372;29;20050;-79
2023/01/23 05:41:16;;;;;;;7.68;4.88;;;2.60;99.90;;;;;;4939201;29;20090;-79
2023/01/23 05:43:43;;;;;;;7.63;4.53;;;2.30;99.90;;;;;;4954763;29;20135;-79
2023/01/23 05:46:08;;;;;;;7.00;4.85;;;2.30;99.90;;;;;;4954667;29;20051;-79
2023/01/23 05:48:34;;;;;;;9.10;5.32;;;2.50;99.90;;;;;;4954461;29;20051;-79
2023/01/23 05:51:02;;;;;;;8.05;5.05;;;2.30;99.90;;;;;;4954336;29;20377;-79
2023/01/23 05:53:28;;;;;;;7.35;4.63;;;2.20;99.90;;;;;;4954605;29;20043;-79
2023/01/23 05:55:54;;;;;;;9.70;5.18;;;2.20;99.90;;;;;;4954210;29;20489;-79
2023/01/23 05:58:19;;;;;;;6.60;4.70;;;2.20;99.90;;;;;;4938175;29;20050;-79
2023/01/23 06:00:45;;;;;;;7.28;4.88;;;2.20;99.90;;;;;;4954653;29;20047;-79
2023/01/23 06:03:10;;;;;;;6.00;4.45;;;2.30;99.90;;;;;;4954731;29;20392;-79
2023/01/23 06:05:36;;;;;;;7.25;4.30;;;2.20;99.90;;;;;;4954967;29;20066;-79
2023/01/23 06:08:02;;;;;;;8.57;4.97;;;2.20;99.90;;;;;;4938415;29;20087;-79
2023/01/23 06:10:27;;;;;;;8.35;5.10;;;2.20;99.90;;;;;;4953558;29;20039;-79
2023/01/23 06:12:53;;;;;;;8.13;4.43;;;2.50;99.90;;;;;;4954751;29;20142;-79
2023/01/23 06:15:19;;;;;;;10.00;5.30;;;2.20;99.90;;;;;;4954745;29;20043;-80
2023/01/23 06:17:44;;;;;;;7.00;4.60;;;2.20;99.90;;;;;;4953718;29;20058;-79
2023/01/23 06:20:11;;;;;;;7.35;4.50;;;2.20;99.90;;;;;;4954165;29;20054;-79
2023/01/23 06:22:37;;;;;;;9.30;4.75;;;2.20;99.90;;;;;;4953899;29;20384;-79
2023/01/23 06:25:03;;;;;;;7.20;5.10;;;2.20;99.90;;;;;;4954051;29;20046;-79
2023/01/23 06:27:28;;;;;;;8.27;5.30;;;2.20;99.90;;;;;;4954108;29;20078;-79
2023/01/23 06:29:54;;;;;;;7.63;4.80;;;2.40;99.90;;;;;;4954779;29;20441;-80
2023/01/23 06:32:22;;;;;;;6.82;4.70;;;2.40;99.90;;;;;;4953905;29;20051;-79
2023/01/23 06:34:48;;;;;;;8.48;4.70;;;2.20;99.90;;;;;;4954186;29;20058;-79
2023/01/23 06:37:13;;;;;;;9.48;5.05;;;2.20;99.90;;;;;;4955451;29;20047;-79
2023/01/23 06:39:39;;;;;;;7.20;4.85;;;2.40;99.90;;;;;;4954942;29;20122;-79
2023/01/23 06:42:08;;;;;;;7.50;4.05;;;2.20;99.90;;;;;;4939777;29;20039;-79
2023/01/23 06:44:35;;;;;;;7.60;5.25;;;2.20;99.90;;;;;;4926755;29;20387;-79
2023/01/23 06:47:00;;;;;;;7.03;4.35;;;2.20;99.90;;;;;;4957434;29;20051;-79
2023/01/23 06:49:26;;;;;;;6.25;4.32;;;2.20;99.90;;;;;;4941573;29;20047;-79
2023/01/23 06:51:52;;;;;;;7.22;4.50;;;2.30;99.90;;;;;;4957503;29;20074;-80
2023/01/23 06:54:17;;;;;;;6.80;4.45;;;2.20;99.90;;;;;;4957439;29;20110;-79
2023/01/23 06:56:43;;;;;;;6.65;4.65;;;2.20;99.90;;;;;;4958475;29;20043;-79
2023/01/23 06:59:09;;;;;;;6.88;4.60;;;2.20;99.90;;;;;;4957585;29;20043;-79
2023/01/23 07:01:34;;;;;;;7.22;4.65;;;2.40;99.90;;;;;;4957972;29;20460;-79
2023/01/23 07:04:00;;;;;;;7.18;5.15;;;2.20;99.90;;;;;;4958718;29;20453;-79
2023/01/23 07:06:25;;;;;;;6.75;4.60;;;2.30;99.90;;;;;;4957291;29;20066;-79
2023/01/23 07:08:51;;;;;;;8.07;5.95;;;2.60;99.90;;;;;;4958139;29;20055;-79
2023/01/23 07:11:17;;;;;;;9.02;4.78;;;2.20;99.90;;;;;;4957958;29;20098;-79
2023/01/23 07:13:43;;;;;;;9.68;5.03;;;2.20;99.90;;;;;;4957996;28;20450;-79
2023/01/23 07:16:08;;;;;;;9.93;5.28;;;2.30;99.90;;;;;;4956842;29;20047;-79
2023/01/23 07:18:34;;;;;;;7.25;4.93;;;2.20;99.90;;;;;;4956629;29;20170;-79
2023/01/23 07:21:04;;;;;;;6.75;4.75;;;2.20;99.90;;;;;;4925172;29;20055;-79
2023/01/23 07:23:30;;;;;;;9.07;5.88;;;2.50;99.90;;;;;;4940940;29;20133;-79
2023/01/23 07:26:00;;;;;;;7.70;4.53;;;1.80;99.90;;;;;;4956871;29;20149;-78
2023/01/23 07:28:26;;;;;;;8.30;4.60;;;2.20;99.90;;;;;;4957825;28;20043;-79
2023/01/23 07:30:52;;;;;;;7.88;4.93;;;2.20;99.90;;;;;;4956803;29;20042;-75
2023/01/23 07:33:18;;;;;;;6.72;4.80;;;2.20;99.90;;;;;;4957634;29;20038;-75
2023/01/23 07:35:43;;;;;;;5.93;4.43;;;2.10;99.90;;;;;;4958432;29;20050;-75
2023/01/23 07:38:09;;;;;;;7.45;4.75;;;2.10;99.90;;;;;;4958133;29;20457;-75
2023/01/23 07:40:37;;;;;;;8.40;5.05;;;2.20;99.90;;;;;;4955952;29;20039;-75
2023/01/23 07:43:04;;;;;;;6.82;4.53;;;2.20;99.90;;;;;;4957914;28;20047;-75
2023/01/23 07:45:30;;;;;;;7.05;4.38;;;2.20;99.90;;;;;;4958048;28;20102;-75
2023/01/23 07:47:56;;;;;;;6.53;4.50;;;2.20;99.90;;;;;;4956039;29;20042;-75
2023/01/23 07:50:21;;;;;;;6.65;4.43;;;2.20;99.90;;;;;;4955792;29;20043;-75
2023/01/23 07:52:47;;;;;;;7.38;4.53;;;2.20;99.90;;;;;;4956290;28;20046;-75
2023/01/23 07:55:13;;;;;;;8.07;4.60;;;2.20;99.90;;;;;;4957504;28;20039;-75
2023/01/23 07:57:38;;;;;;;8.45;4.93;;;2.30;99.90;;;;;;4957629;28;20129;-75
2023/01/23 08:00:05;;;;;;;6.95;4.88;;;2.20;99.90;;;;;;4956061;29;20047;-75
2023/01/23 08:02:30;;;;;;;7.18;4.78;;;2.20;99.90;;;;;;4957054;28;20479;-75
2023/01/23 08:04:56;;;;;;;8.38;4.95;;;2.20;99.90;;;;;;4956668;29;20137;-75
2023/01/23 08:07:22;;;;;;;7.95;5.25;;;2.20;99.90;;;;;;4956950;29;20054;-75
2023/01/23 08:09:48;;;;;;;7.57;4.57;;;2.60;99.90;;;;;;4957062;28;20062;-75
2023/01/23 08:12:14;;;;;;;9.60;5.25;;;2.30;99.90;;;;;;4957538;29;20043;-75
2023/01/23 08:14:40;;;;;;;7.82;4.82;;;2.30;99.90;;;;;;4956902;29;20050;-75
2023/01/23 08:17:05;;;;;;;8.65;4.80;;;2.30;99.90;;;;;;4955802;29;20050;-75
2023/01/23 08:19:31;;;;;;;8.35;5.50;;;2.30;99.90;;;;;;4955215;29;20051;-75
2023/01/23 08:21:57;;;;;;;7.53;4.63;;;2.90;99.90;;;;;;4956631;29;20054;-75
2023/01/23 08:24:22;;;;;;;7.40;4.53;;;2.40;99.90;;;;;;4955817;29;20043;-75
2023/01/23 08:26:48;;;;;;;7.72;5.15;;;2.80;99.90;;;;;;4956677;29;20046;-75
2023/01/23 08:29:14;;;;;;;9.30;6.97;;;2.40;99.90;;;;;;4956557;29;20476;-75
2023/01/23 08:31:39;;;;;;;7.45;4.90;;;2.70;99.90;;;;;;4956672;29;20043;-75
2023/01/23 08:34:05;;;;;;;7.05;4.78;;;2.80;99.90;;;;;;4955806;29;20039;-75
2023/01/23 08:36:31;;;;;;;8.32;4.65;;;2.70;99.90;;;;;;4954766;29;20174;-76
2023/01/23 08:38:56;;;;;;;8.45;4.50;;;2.50;99.90;;;;;;4939499;29;20400;-76
2023/01/23 08:41:22;;;;;;;8.30;4.82;;;2.60;99.90;;;;;;4955327;29;20117;-76
2023/01/23 08:43:49;;;;;;;7.15;4.38;;;2.60;99.90;;;;;;4955873;29;20043;-76
2023/01/23 08:46:15;;;;;;;6.70;4.57;;;2.60;99.90;;;;;;4939179;29;20372;-76
2023/01/23 08:48:40;;;;;;;7.35;4.53;;;2.60;99.90;;;;;;4956147;29;20135;-77
2023/01/23 08:51:09;;;;;;;7.68;4.80;;;2.60;99.90;;;;;;4956928;28;20457;-77
2023/01/23 08:53:35;;;;;;;6.20;4.07;;;2.70;99.90;;;;;;4955447;29;20057;-77
2023/01/23 08:56:15;;;;;;;8.40;4.25;;;2.60;99.90;;;;;;4956117;28;20039;-77
2023/01/23 08:58:41;;;;;;;5.80;4.03;;;2.70;99.90;;;;;;4955835;29;20543;-76
2023/01/23 09:01:12;;;;;;;6.07;4.40;;;2.70;99.90;;;;;;4955382;29;20133;-78
2023/01/23 09:03:38;;;;;;;9.27;4.93;;;2.70;99.90;;;;;;4954999;29;20039;-77
2023/01/23 09:06:03;;;;;;;6.18;4.10;;;2.80;99.90;;;;;;4954994;28;20464;-77
2023/01/23 09:08:29;;;;;;;4.78;3.67;;;2.70;99.90;;;;;;4955418;29;20051;-77
2023/01/23 09:11:03;;;;;;;5.68;4.05;;;3.00;99.90;;;;;;4955872;29;20051;-79
2023/01/23 09:13:29;;;;;;;5.57;3.95;;;2.80;99.90;;;;;;4955658;29;20372;-76
2023/01/23 09:15:55;;;;;;;8.85;4.43;;;2.80;99.90;;;;;;4954637;29;20040;-76
2023/01/23 09:18:24;;;;;;;6.72;4.22;;;2.80;99.90;;;;;;4970406;28;20047;-77
2023/01/23 09:20:53;;;;;;;5.82;4.05;;;2.80;99.90;;;;;;4970808;28;20078;-78
2023/01/23 09:23:19;;;;;;;4.90;3.97;;;3.10;99.90;;;;;;4954321;29;20051;-76
2023/01/23 09:25:45;;;;;;;6.28;4.00;;;3.00;99.90;;;;;;4955753;28;20054;-77
2023/01/23 09:28:11;;;;;;;6.82;3.97;;;2.90;99.90;;;;;;4954795;29;20039;-76
2023/01/23 09:30:37;;;;;;;8.57;4.65;;;2.90;99.90;;;;;;4955677;29;20074;-76
2023/01/23 09:33:03;;;;;;;5.97;3.95;;;3.00;99.90;;;;;;4938631;29;20039;-76
2023/01/23 09:35:29;;;;;;;7.57;4.43;;;2.90;99.90;;;;;;4955533;29;20047;-76
2023/01/23 09:38:00;;;;;;;5.85;4.00;;;2.90;99.90;;;;;;4955799;29;20085;-76
2023/01/23 09:40:34;;;;;;;7.13;3.83;;;3.10;99.90;;;;;;4956023;29;20391;-76
2023/01/23 09:43:31;;;;;;;6.97;4.20;;;3.00;99.90;;;;;;4938661;29;20090;-77
2023/01/23 09:46:16;;;;;;;6.47;3.97;;;3.00;99.90;;;;;;4954664;29;20050;-76
2023/01/23 09:48:47;;;;;;;7.25;4.03;;;3.00;99.90;;;;;;4954121;29;20051;-76
2023/01/23 09:51:37;;;;;;;5.50;3.78;;;3.10;99.90;;;;;;4954156;29;20441;-76
2023/01/23 09:54:21;;;;;;;6.45;3.90;;;3.10;99.90;;;;;;4954074;29;20051;-76
2023/01/23 09:56:47;;;;;;;5.85;5.00;;;3.10;99.90;;;;;;4954662;29;20054;-76
2023/01/23 09:59:24;;;;;;;5.43;4.28;;;3.10;99.90;;;;;;4954495;29;20043;-76
2023/01/23 10:01:50;;;;;;;8.60;5.30;;;3.40;99.90;;;;;;4955136;28;20085;-76
2023/01/23 10:04:18;;;;;;;5.60;4.15;;;3.30;99.90;;;;;;4954040;29;20123;-76
2023/01/23 10:07:09;;;;;;;5.55;3.80;;;3.10;99.90;;;;;;4954544;29;20051;-76
2023/01/23 10:09:53;;;;;;;6.32;4.00;;;3.10;99.90;;;;;;4954311;29;20039;-77
2023/01/23 10:12:31;;;;;;;7.10;4.10;;;3.20;99.90;;;;;;4954171;29;20146;-77
2023/01/23 10:15:41;;;;;;;6.03;4.43;;;3.20;99.90;;;;;;4955727;28;20350;-77
2023/01/23 10:18:42;;;;;;;5.65;4.07;;;3.30;99.90;;;;;;4956893;29;20549;-77
2023/01/23 10:21:25;;;;;;;5.47;4.18;;;3.30;99.90;;;;;;4959502;28;20047;-76
2023/01/23 10:24:08;;;;;;;5.93;4.00;;;3.30;99.90;;;;;;4958932;29;20106;-76
2023/01/23 10:26:40;;;;;;;6.30;4.13;;;3.30;99.90;;;;;;4957778;29;20054;-76
2023/01/23 10:29:37;;;;;;;6.85;4.57;;;3.40;99.90;;;;;;4958876;28;20126;-76
2023/01/23 10:32:05;;;;;;;6.43;4.35;;;3.40;99.90;;;;;;4943902;29;20046;-76
2023/01/23 10:34:50;;;;;;;8.15;4.72;;;3.40;99.90;;;;;;4958796;28;20051;-77
2023/01/23 10:37:21;;;;;;;6.30;4.20;;;3.40;99.90;;;;;;4974293;28;20047;-76
2023/01/23 10:40:02;;;;;;;7.03;4.35;;;3.50;99.90;;;;;;4959338;29;20059;-76
2023/01/23 10:42:28;;;;;;;6.43;4.45;;;3.40;99.90;;;;;;4959104;28;20183;-76
2023/01/23 10:44:54;;;;;;;7.22;4.45;;;3.80;99.90;;;;;;4958643;29;20122;-76
2023/01/23 10:47:28;;;;;;;6.72;4.70;;;3.70;99.90;;;;;;4958570;29;20058;-77
2023/01/23 10:49:53;;;;;;;8.43;5.43;;;3.40;99.90;;;;;;4957581;29;20054;-77
2023/01/23 10:52:31;;;;;;;9.07;4.80;;;3.80;99.90;;;;;;4958077;29;20043;-76
2023/01/23 10:54:57;;;;;;;9.57;4.80;;;3.50;99.90;;;;;;4957430;29;20075;-76
2023/01/23 10:57:26;;;;;;;7.45;4.28;;;3.50;99.90;;;;;;4958335;28;20043;-76
2023/01/23 11:00:07;;;;;;;9.13;5.03;;;3.60;99.90;;;;;;4956803;29;20503;-76
2023/01/23 11:02:39;;;;;;;6.35;4.25;;;3.50;99.90;;;;;;4957456;29;20508;-76
2023/01/23 11:05:29;;;;;;;7.93;4.50;;;3.70;99.90;;;;;;4957443;29;20035;-77
2023/01/23 11:07:55;;;;;;;6.97;4.15;;;3.50;99.90;;;;;;4958961;29;20384;-77
2023/01/23 11:10:22;;;;;;;7.15;4.50;;;3.50;99.90;;;;;;4957212;29;20058;-77
2023/01/23 11:12:52;;;;;;;7.60;4.32;;;3.50;99.90;;;;;;4958353;28;20453;-77
2023/01/23 11:15:31;;;;;;;10.68;4.75;;;4.10;99.90;;;;;;4958490;28;20125;-77
2023/01/23 11:17:59;;;;;;;8.45;4.72;;;4.00;99.90;;;;;;4958595;28;20334;-77
2023/01/23 11:20:36;;;;;;;8.50;4.45;;;3.60;99.90;;;;;;4973903;28;20066;-77
2023/01/23 11:23:15;;;;;;;8.38;4.50;;;3.60;99.90;;;;;;4958233;28;20043;-77
2023/01/23 11:25:46;;;;;;;7.47;4.38;;;3.70;99.90;;;;;;4958221;28;20426;-77
2023/01/23 11:28:23;;;;;;;6.93;4.88;;;3.80;99.90;;;;;;4957274;28;20043;-77
2023/01/23 11:30:57;;;;;;;7.95;5.13;;;3.70;99.90;;;;;;4958104;28;20520;-77
2023/01/23 11:33:46;;;;;;;7.40;4.72;;;3.70;99.90;;;;;;4957597;29;20043;-77
2023/01/23 11:36:18;;;;;;;7.93;5.07;;;3.80;99.90;;;;;;4956182;29;20074;-77
2023/01/23 11:38:52;;;;;;;8.27;4.78;;;3.80;99.90;;;;;;4956314;29;20043;-78
2023/01/23 11:41:19;;;;;;;9.05;4.93;;;3.80;99.90;;;;;;4957410;28;20483;-77
2023/01/23 11:43:44;;;;;;;7.13;4.63;;;4.00;99.90;;;;;;4957717;28;20051;-77
2023/01/23 11:46:31;;;;;;;7.90;4.70;;;4.00;99.90;;;;;;4957250;29;20063;-76
2023/01/23 11:48:59;;;;;;;;;;;3.90;99.90;;;;;;4957777;29;20117;-76
2023/01/23 11:51:54;;;;;;;7.85;4.43;;;3.90;99.90;;;;;;4957351;28;19918;-76
2023/01/23 11:54:52;;;;;;;7.97;5.28;;;3.90;99.90;;;;;;4957857;29;20130;-76
2023/01/23 11:57:46;;;;;;;8.15;4.95;;;3.90;99.90;;;;;;4957157;29;20047;-76
2023/01/23 12:00:36;;;;;;;7.68;4.93;;;3.90;99.90;;;;;;4956412;29;20450;-76
2023/01/23 12:03:16;;;;;;;7.85;5.00;;;3.90;99.90;;;;;;4956873;29;20055;-76
2023/01/23 12:06:17;;;;;;;6.95;4.57;;;3.90;99.90;;;;;;4957078;28;20079;-77
2023/01/23 12:09:10;;;;;;;8.10;4.88;;;3.90;99.90;;;;;;4955842;29;20047;-76
2023/01/23 12:12:03;;;;;;;6.72;4.32;;;4.00;99.90;;;;;;4956687;28;20043;-77
2023/01/23 12:14:41;;;;;;;6.90;4.70;;;4.00;99.90;;;;;;4955612;29;20416;-78
2023/01/23 12:17:29;;;;;;;9.35;5.40;;;4.00;99.90;;;;;;4955537;29;20070;-76
2023/01/23 12:20:43;;;;;;;8.68;5.43;;;4.00;99.90;;;;;;4957309;28;20113;-76
2023/01/23 12:23:26;;;;;;;9.10;5.30;;;4.00;99.90;;;;;;4881768;29;20070;-76
2023/01/23 12:26:21;;;;;;;7.53;5.47;;;4.00;99.90;;;;;;4882318;29;20176;-76
2023/01/23 12:29:14;;;;;;;7.65;5.13;;;4.10;99.90;;;;;;4938835;29;20114;-77
2023/01/23 12:31:46;;;;;;;8.38;4.70;;;4.10;99.90;;;;;;4971774;28;20483;-77
2023/01/23 12:34:47;;;;;;;10.32;5.20;;;4.10;99.90;;;;;;4956386;29;20426;-77
2023/01/23 12:37:15;;;;;;;7.10;4.78;;;4.20;99.90;;;;;;4955754;29;20055;-77
2023/01/23 12:39:47;;;;;;;8.95;4.88;;;4.20;99.90;;;;;;4954391;28;20193;-77
2023/01/23 12:42:22;;;;;;;7.82;4.43;;;4.20;99.90;;;;;;4955268;29;20039;-78
2023/01/23 12:45:25;;;;;;;9.35;4.88;;;4.20;99.90;;;;;;4955549;29;20043;-78
2023/01/23 12:48:12;;;;;;;8.40;5.40;;;4.20;99.90;;;;;;4955496;28;20074;-78
2023/01/23 12:50:46;;;;;;;8.18;5.13;;;4.20;99.90;;;;;;4955175;29;20491;-78
2023/01/23 12:53:14;;;;;;;8.43;5.07;;;4.30;99.90;;;;;;4955432;29;20047;-77
2023/01/23 12:55:46;;;;;;;8.63;5.07;;;4.20;99.90;;;;;;4956245;28;20047;-77
2023/01/23 12:58:16;;;;;;;8.77;5.13;;;4.20;99.90;;;;;;4955035;29;20047;-77
2023/01/23 13:01:09;;;;;;;7.38;4.85;;;4.30;99.90;;;;;;5088514;27;20118;-75
2023/01/23 13:04:08;;;;;;;6.65;4.43;;;4.20;99.90;;;;;;5088640;28;20502;-74
2023/01/23 13:07:00;;;;;;;7.13;4.75;;;4.30;99.90;;;;;;5086969;28;20044;-77
2023/01/23 13:10:03;;;;;;;10.98;5.43;;;4.30;99.90;;;;;;5088480;28;20040;-74
2023/01/23 13:12:31;;;;;;;9.75;5.30;;;4.30;99.90;;;;;;5085777;28;20040;-80
2023/01/23 13:15:15;;;;;;;8.05;5.50;;;4.30;99.90;;;;;;5087994;28;20114;-79
2023/01/23 13:17:57;;;;;;;7.30;5.03;;;4.70;99.90;;;;;;5087613;28;20058;-80
2023/01/23 13:23:36;;;;;;;9.13;5.75;;;4.30;99.90;;;;;;5087184;28;20067;-80
2023/01/23 13:26:14;;;;;;;7.38;5.43;;;4.60;99.90;;;;;;5088156;28;20448;-80